createdAt,value
2022-12-03T00:00:35.880Z,1.68
2022-12-03T00:03:02.655Z,1.68
2022-12-03T00:05:29.264Z,1.67
2022-12-03T00:07:55.804Z,1.66
2022-12-03T00:10:22.541Z,1.66
2022-12-03T00:12:49.074Z,1.68
2022-12-03T00:15:15.749Z,1.69
2022-12-03T00:17:42.376Z,1.69
2022-12-03T00:20:11.401Z,1.69
2022-12-03T00:22:37.966Z,1.69
2022-12-03T00:25:04.893Z,1.69
2022-12-03T00:27:31.530Z,1.69
2022-12-03T00:29:58.092Z,1.69
2022-12-03T00:32:24.695Z,1.71
2022-12-03T00:34:51.496Z,1.71
2022-12-03T00:37:18.452Z,1.71
2022-12-03T00:39:44.963Z,1.69
2022-12-03T00:42:11.435Z,1.69
2022-12-03T00:44:38.038Z,1.68
2022-12-03T00:47:04.765Z,1.69
2022-12-03T00:49:31.964Z,1.68
2022-12-03T00:51:58.500Z,1.68
2022-12-03T00:54:31.430Z,1.68
2022-12-03T00:56:58.553Z,1.66
2022-12-03T00:59:25.217Z,1.65
2022-12-03T01:01:51.899Z,1.63
2022-12-03T01:04:18.651Z,1.61
2022-12-03T01:06:45.207Z,1.63
2022-12-03T01:09:11.754Z,1.64
2022-12-03T01:11:38.326Z,1.65
2022-12-03T01:14:06.977Z,1.64
2022-12-03T01:16:33.837Z,1.64
2022-12-03T01:19:00.421Z,1.64
2022-12-03T01:21:27.023Z,1.63
2022-12-03T01:23:53.949Z,1.63
2022-12-03T01:26:20.621Z,1.65
2022-12-03T01:28:47.230Z,1.64
2022-12-03T01:31:32.424Z,1.64
2022-12-03T01:33:58.956Z,1.65
2022-12-03T01:36:25.520Z,1.65
2022-12-03T01:38:52.016Z,1.65
2022-12-03T01:41:20.383Z,1.65
2022-12-03T01:43:47.748Z,1.66
2022-12-03T01:46:18.503Z,1.67
2022-12-03T01:48:46.073Z,1.68
2022-12-03T01:51:14.009Z,1.68
2022-12-03T01:53:40.995Z,1.67
2022-12-03T01:56:12.595Z,1.68
2022-12-03T01:58:40.135Z,1.68
2022-12-03T02:01:13.007Z,1.69
2022-12-03T02:03:39.795Z,1.70
2022-12-03T02:06:14.170Z,1.71
2022-12-03T02:08:41.741Z,1.72
2022-12-03T02:11:25.107Z,1.73
2022-12-03T02:13:55.229Z,1.73
2022-12-03T02:16:22.083Z,1.73
2022-12-03T02:18:48.878Z,1.73
2022-12-03T02:21:46.411Z,1.74
2022-12-03T02:24:31.798Z,1.75
2022-12-03T02:26:58.289Z,1.77
2022-12-03T02:29:25.070Z,1.76
2022-12-03T02:31:51.662Z,1.78
2022-12-03T02:34:56.846Z,1.77
2022-12-03T02:37:35.731Z,1.79
2022-12-03T02:40:06.814Z,1.80
2022-12-03T02:42:36.166Z,1.80
2022-12-03T02:45:05.950Z,1.80
2022-12-03T02:47:35.651Z,1.81
2022-12-03T02:50:03.073Z,1.80
2022-12-03T02:52:29.915Z,1.80
2022-12-03T02:54:56.541Z,1.80
2022-12-03T02:57:23.193Z,1.81
2022-12-03T02:59:50.138Z,1.82
2022-12-03T03:02:17.096Z,1.82
2022-12-03T03:04:44.482Z,1.82
2022-12-03T03:07:11.411Z,1.82
2022-12-03T03:09:38.025Z,1.83
2022-12-03T03:12:04.893Z,1.83
2022-12-03T03:14:32.492Z,1.84
2022-12-03T03:16:59.449Z,1.84
2022-12-03T03:19:26.307Z,1.85
2022-12-03T03:21:56.461Z,1.86
2022-12-03T03:24:23.562Z,1.84
2022-12-03T03:26:50.719Z,1.85
2022-12-03T03:29:17.652Z,1.87
2022-12-03T03:31:46.456Z,1.86
2022-12-03T03:34:14.233Z,1.87
2022-12-03T03:36:41.070Z,1.85
2022-12-03T03:39:07.775Z,1.86
2022-12-03T03:41:35.601Z,1.88
2022-12-03T03:44:06.140Z,1.87
2022-12-03T03:46:33.610Z,1.87
2022-12-03T03:49:00.584Z,1.88
2022-12-03T03:51:27.606Z,1.88
2022-12-03T03:53:54.715Z,1.88
2022-12-03T03:56:21.943Z,1.90
2022-12-03T03:58:48.509Z,1.89
2022-12-03T04:01:15.339Z,1.90
2022-12-03T04:03:42.066Z,1.91
2022-12-03T04:06:09.269Z,1.90
2022-12-03T04:08:35.956Z,1.92
2022-12-03T04:11:21.151Z,1.92
2022-12-03T04:13:47.597Z,1.93
2022-12-03T04:16:14.216Z,1.95
2022-12-03T04:18:43.545Z,1.93
2022-12-03T04:21:34.419Z,1.94
2022-12-03T04:24:02.026Z,1.95
2022-12-03T04:26:47.892Z,1.95
2022-12-03T04:29:14.603Z,1.94
2022-12-03T04:32:00.674Z,1.93
2022-12-03T04:34:46.128Z,1.93
2022-12-03T04:37:12.654Z,1.95
2022-12-03T04:39:39.520Z,1.94
2022-12-03T04:42:06.419Z,1.94
2022-12-03T04:44:33.629Z,1.95
2022-12-03T04:47:01.171Z,1.93
2022-12-03T04:49:27.689Z,1.94
2022-12-03T04:51:54.408Z,1.96
2022-12-03T04:54:20.930Z,1.95
2022-12-03T04:56:47.563Z,1.94
2022-12-03T04:59:16.454Z,1.95
2022-12-03T05:01:44.160Z,1.94
2022-12-03T05:04:12.076Z,1.94
2022-12-03T05:06:39.126Z,1.95
2022-12-03T05:09:05.657Z,1.95
2022-12-03T05:11:32.240Z,1.96
2022-12-03T05:13:58.813Z,1.97
2022-12-03T05:16:27.862Z,1.94
2022-12-03T05:18:54.500Z,1.95
2022-12-03T05:21:21.003Z,1.95
2022-12-03T05:23:47.580Z,1.93
2022-12-03T05:26:14.113Z,1.96
2022-12-03T05:28:40.705Z,1.94
2022-12-03T05:31:07.366Z,1.94
2022-12-03T05:33:33.971Z,1.93
2022-12-03T05:36:00.564Z,1.94
2022-12-03T05:38:27.178Z,1.91
2022-12-03T05:40:53.815Z,1.90
2022-12-03T05:43:20.299Z,1.87
2022-12-03T05:45:47.056Z,1.86
2022-12-03T05:48:16.019Z,1.86
2022-12-03T05:50:45.314Z,1.84
2022-12-03T05:53:13.112Z,1.84
2022-12-03T05:55:39.703Z,1.83
2022-12-03T05:58:06.965Z,1.83
2022-12-03T06:00:42.547Z,1.82
2022-12-03T06:03:10.352Z,1.82
2022-12-03T06:05:37.142Z,1.83
2022-12-03T06:08:04.098Z,1.82
2022-12-03T06:10:30.849Z,1.82
2022-12-03T06:12:57.473Z,1.81
2022-12-03T06:15:24.237Z,1.81
2022-12-03T06:17:51.626Z,1.82
2022-12-03T06:20:20.320Z,1.81
2022-12-03T06:22:46.906Z,1.82
2022-12-03T06:25:14.371Z,1.80
2022-12-03T06:27:40.929Z,1.81
2022-12-03T06:30:08.994Z,1.80
2022-12-03T06:32:36.092Z,1.80
2022-12-03T06:35:03.251Z,1.80
2022-12-03T06:37:29.832Z,1.79
2022-12-03T06:39:56.404Z,1.78
2022-12-03T06:42:22.873Z,1.78
2022-12-03T06:44:49.376Z,1.76
2022-12-03T06:47:16.017Z,1.75
2022-12-03T06:49:42.672Z,1.78
2022-12-03T06:52:09.204Z,1.79
2022-12-03T06:54:35.755Z,1.78
2022-12-03T06:57:02.297Z,1.78
2022-12-03T06:59:28.868Z,1.78
2022-12-03T07:01:55.468Z,1.76
2022-12-03T07:04:22.029Z,1.75
2022-12-03T07:06:48.597Z,1.74
2022-12-03T07:09:17.014Z,1.72
2022-12-03T07:11:43.642Z,1.72
2022-12-03T07:14:14.022Z,1.71
2022-12-03T07:16:43.234Z,1.70
2022-12-03T07:19:10.334Z,1.70
2022-12-03T07:21:36.903Z,1.71
2022-12-03T07:24:03.754Z,1.69
2022-12-03T07:26:30.279Z,1.66
2022-12-03T07:28:56.886Z,1.66
2022-12-03T07:31:23.615Z,1.66
2022-12-03T07:33:50.262Z,1.63
2022-12-03T07:36:16.745Z,1.62
2022-12-03T07:38:43.367Z,1.61
2022-12-03T07:41:09.918Z,1.62
2022-12-03T07:43:36.474Z,1.62
2022-12-03T07:46:03.011Z,1.60
2022-12-03T07:48:29.556Z,1.59
2022-12-03T07:50:56.065Z,1.58
2022-12-03T07:53:22.532Z,1.57
2022-12-03T07:55:49.059Z,1.57
2022-12-03T07:58:15.564Z,1.58
2022-12-03T08:00:42.145Z,1.57
2022-12-03T08:03:08.741Z,1.59
2022-12-03T08:05:35.188Z,1.58
2022-12-03T08:08:02.003Z,1.55
2022-12-03T08:10:28.658Z,1.54
2022-12-03T08:12:58.243Z,1.53
2022-12-03T08:15:30.187Z,1.52
2022-12-03T08:18:02.844Z,1.53
2022-12-03T08:20:34.582Z,1.52
2022-12-03T08:23:06.752Z,1.51
2022-12-03T08:25:33.328Z,1.50
2022-12-03T08:28:07.737Z,1.50
2022-12-03T08:30:34.199Z,1.50
2022-12-03T08:33:00.689Z,1.47
2022-12-03T08:35:30.702Z,1.45
2022-12-03T08:38:12.970Z,1.42
2022-12-03T08:40:41.843Z,1.43
2022-12-03T08:43:23.483Z,1.43
2022-12-03T08:45:51.723Z,1.43
2022-12-03T08:48:28.957Z,1.42
2022-12-03T08:50:58.754Z,1.42
2022-12-03T08:53:29.769Z,1.45
2022-12-03T08:56:18.050Z,1.47
2022-12-03T08:58:54.035Z,1.48
2022-12-03T09:01:34.114Z,1.49
2022-12-03T09:04:27.641Z,1.48
2022-12-03T09:06:54.843Z,1.48
2022-12-03T09:09:22.663Z,1.51
2022-12-03T09:11:50.465Z,1.49
2022-12-03T09:14:22.559Z,1.49
2022-12-03T09:16:55.835Z,1.48
2022-12-03T09:19:24.713Z,1.44
2022-12-03T09:21:51.646Z,1.45
2022-12-03T09:24:18.561Z,1.42
2022-12-03T09:26:45.158Z,1.43
2022-12-03T09:29:12.841Z,1.44
2022-12-03T09:31:40.378Z,1.45
2022-12-03T09:34:07.409Z,1.47
2022-12-03T09:36:34.118Z,1.44
2022-12-03T09:39:00.769Z,1.45
2022-12-03T09:41:27.561Z,1.43
2022-12-03T09:44:15.799Z,1.44
2022-12-03T09:46:42.311Z,1.42
2022-12-03T09:49:15.853Z,1.43
2022-12-03T09:51:44.274Z,1.41
2022-12-03T09:54:20.933Z,1.41
2022-12-03T09:56:47.458Z,1.41
2022-12-03T09:59:15.166Z,1.41
2022-12-03T10:01:42.167Z,1.40
2022-12-03T10:04:09.815Z,1.39
2022-12-03T10:06:40.948Z,1.40
2022-12-03T10:09:12.169Z,1.41
2022-12-03T10:11:38.994Z,1.45
2022-12-03T10:14:06.280Z,1.49
2022-12-03T10:16:33.840Z,1.51
2022-12-03T10:19:01.441Z,1.55
2022-12-03T10:21:39.010Z,1.51
2022-12-03T10:24:28.936Z,1.48
2022-12-03T10:27:01.677Z,1.44
2022-12-03T10:29:34.053Z,1.38
2022-12-03T10:32:05.829Z,1.31
2022-12-03T10:34:35.853Z,1.26
2022-12-03T10:37:13.506Z,1.25
2022-12-03T10:39:58.873Z,1.26
2022-12-03T10:42:30.925Z,1.25
2022-12-03T10:45:14.700Z,1.28
2022-12-03T10:47:42.503Z,1.30
2022-12-03T10:50:19.214Z,1.34
2022-12-03T10:52:46.751Z,1.34
2022-12-03T10:55:14.910Z,1.34
2022-12-03T10:57:45.549Z,1.34
2022-12-03T11:00:22.759Z,1.32
2022-12-03T11:02:56.114Z,1.27
2022-12-03T11:05:27.550Z,1.24
2022-12-03T11:07:54.578Z,1.18
2022-12-03T11:10:21.830Z,1.17
2022-12-03T11:13:26.249Z,1.17
2022-12-03T11:15:53.705Z,1.20
2022-12-03T11:18:38.591Z,1.20
2022-12-03T11:21:08.098Z,1.19
2022-12-03T11:23:46.496Z,1.17
2022-12-03T11:26:18.851Z,1.17
2022-12-03T11:28:46.156Z,1.18
2022-12-03T11:31:39.111Z,1.18
2022-12-03T11:34:21.050Z,1.22
2022-12-03T11:37:09.586Z,1.23
2022-12-03T11:39:45.497Z,1.26
2022-12-03T11:42:25.444Z,1.22
2022-12-03T11:45:04.562Z,1.17
2022-12-03T11:47:32.576Z,1.17
2022-12-03T11:49:59.190Z,1.19
2022-12-03T11:52:30.395Z,1.17
2022-12-03T11:55:04.688Z,1.17
2022-12-03T11:57:38.178Z,1.17
2022-12-03T12:00:13.464Z,1.21
2022-12-03T12:02:40.335Z,1.23
2022-12-03T12:05:25.068Z,1.26
2022-12-03T12:07:54.280Z,1.29
2022-12-03T12:10:39.158Z,1.27
2022-12-03T12:13:05.788Z,1.28
2022-12-03T12:15:38.359Z,1.30
2022-12-03T12:18:42.251Z,1.31
2022-12-03T12:21:47.798Z,1.27
2022-12-03T12:24:30.460Z,1.26
2022-12-03T12:26:58.723Z,1.25
2022-12-03T12:29:25.222Z,1.24
2022-12-03T12:31:57.521Z,1.22
2022-12-03T12:34:25.454Z,1.17
2022-12-03T12:36:54.772Z,1.16
2022-12-03T12:39:21.332Z,1.14
2022-12-03T12:41:50.341Z,1.14
2022-12-03T12:44:18.505Z,1.15
2022-12-03T12:46:48.618Z,1.15
2022-12-03T12:49:15.526Z,1.14
2022-12-03T12:51:46.767Z,1.10
2022-12-03T12:54:15.871Z,1.09
2022-12-03T12:56:49.835Z,1.09
2022-12-03T12:59:21.975Z,1.03
2022-12-03T13:01:50.238Z,1.05
2022-12-03T13:04:20.038Z,1.05
2022-12-03T13:06:49.061Z,1.03
2022-12-03T13:09:18.595Z,1.03
2022-12-03T13:11:47.651Z,1.02
2022-12-03T13:14:25.248Z,1.03
2022-12-03T13:16:55.082Z,1.02
2022-12-03T13:19:27.188Z,1.01
2022-12-03T13:22:12.809Z,0.99
2022-12-03T13:24:43.851Z,0.98
2022-12-03T13:27:19.747Z,0.96
2022-12-03T13:29:50.790Z,0.95
2022-12-03T13:32:37.108Z,0.96
2022-12-03T13:35:09.953Z,0.98
2022-12-03T13:37:37.450Z,0.97
2022-12-03T13:40:36.031Z,0.95
2022-12-03T13:43:12.251Z,0.91
2022-12-03T13:45:41.387Z,0.88
2022-12-03T13:48:31.767Z,0.85
2022-12-03T13:51:08.421Z,0.84
2022-12-03T13:53:38.545Z,0.79
2022-12-03T13:56:27.230Z,0.74
2022-12-03T13:58:54.018Z,0.69
2022-12-03T14:01:20.712Z,0.67
2022-12-03T14:03:47.465Z,0.64
2022-12-03T14:06:14.532Z,0.62
2022-12-03T14:08:41.414Z,0.64
2022-12-03T14:11:08.191Z,0.60
2022-12-03T14:13:35.107Z,0.59
2022-12-03T14:16:01.728Z,0.56
2022-12-03T14:18:28.312Z,0.53
2022-12-03T14:20:54.846Z,0.53
2022-12-03T14:23:21.455Z,0.53
2022-12-03T14:25:48.005Z,0.55
2022-12-03T14:28:14.505Z,0.56
2022-12-03T14:30:41.074Z,0.57
2022-12-03T14:33:07.671Z,0.58
2022-12-03T14:35:34.161Z,0.62
2022-12-03T14:38:00.680Z,0.63
2022-12-03T14:40:27.591Z,0.63
2022-12-03T14:42:54.197Z,0.64
2022-12-03T14:45:21.003Z,0.62
2022-12-03T14:47:47.554Z,0.61
2022-12-03T14:50:14.690Z,0.62
2022-12-03T14:52:41.905Z,0.61
2022-12-03T14:55:08.891Z,0.61
2022-12-03T14:57:35.489Z,0.59
2022-12-03T15:00:01.952Z,0.56
2022-12-03T15:02:30.309Z,0.56
2022-12-03T15:04:56.957Z,0.56
2022-12-03T15:07:23.589Z,0.55
2022-12-03T15:09:50.140Z,0.55
2022-12-03T15:12:16.708Z,0.56
2022-12-03T15:14:43.322Z,0.56
2022-12-03T15:17:09.860Z,0.55
2022-12-03T15:19:36.413Z,0.56
2022-12-03T15:22:02.988Z,0.53
2022-12-03T15:24:29.520Z,0.52
2022-12-03T15:26:56.128Z,0.52
2022-12-03T15:29:23.341Z,0.48
2022-12-03T15:31:50.003Z,0.46
2022-12-03T15:34:22.057Z,0.45
2022-12-03T15:36:49.639Z,0.42
2022-12-03T15:39:16.128Z,0.40
2022-12-03T15:41:42.689Z,0.43
2022-12-03T15:44:09.268Z,0.41
2022-12-03T15:46:35.924Z,0.38
2022-12-03T15:49:02.639Z,0.36
2022-12-03T15:51:29.144Z,0.33
2022-12-03T15:53:55.725Z,0.32
2022-12-03T15:56:22.290Z,0.33
2022-12-03T15:58:48.749Z,0.34
2022-12-03T16:01:15.371Z,0.32
2022-12-03T16:03:42.004Z,0.33
2022-12-03T16:06:08.944Z,0.32
2022-12-03T16:08:35.586Z,0.31
2022-12-03T16:11:02.102Z,0.30
2022-12-03T16:13:28.678Z,0.29
2022-12-03T16:15:55.230Z,0.29
2022-12-03T16:18:21.749Z,0.28
2022-12-03T16:20:48.299Z,0.28
2022-12-03T16:23:14.797Z,0.26
2022-12-03T16:25:41.324Z,0.27
2022-12-03T16:28:08.377Z,0.27
2022-12-03T16:30:35.981Z,0.25
2022-12-03T16:33:02.556Z,0.27
2022-12-03T16:35:29.185Z,0.28
2022-12-03T16:37:55.655Z,0.26
2022-12-03T16:40:22.279Z,0.26
2022-12-03T16:42:48.820Z,0.23
2022-12-03T16:45:50.892Z,0.24
2022-12-03T16:48:18.770Z,0.23
2022-12-03T16:50:45.634Z,0.22
2022-12-03T16:53:12.441Z,0.22
2022-12-03T16:55:38.989Z,0.22
2022-12-03T16:58:05.544Z,0.21
2022-12-03T17:00:32.113Z,0.20
2022-12-03T17:02:58.796Z,0.20
2022-12-03T17:05:25.373Z,0.22
2022-12-03T17:07:51.998Z,0.21
2022-12-03T17:10:18.615Z,0.19
2022-12-03T17:15:32.475Z,0.23
2022-12-03T17:17:59.074Z,0.24
2022-12-03T17:20:25.701Z,0.20
2022-12-03T17:22:52.200Z,0.19
2022-12-03T17:25:18.792Z,0.20
2022-12-03T17:27:45.682Z,0.22
2022-12-03T17:30:13.053Z,0.22
2022-12-03T17:32:40.042Z,0.21
2022-12-03T17:35:07.189Z,0.19
2022-12-03T17:37:33.944Z,0.20
2022-12-03T17:40:00.512Z,0.18
2022-12-03T17:42:27.114Z,0.14
2022-12-03T17:44:53.644Z,0.13
2022-12-03T17:47:20.140Z,0.12
2022-12-03T17:49:46.611Z,0.12
2022-12-03T17:52:13.168Z,0.12
2022-12-03T17:55:02.354Z,0.11
2022-12-03T17:57:26.237Z,0.11
2022-12-03T17:59:53.020Z,0.12
2022-12-03T18:02:19.970Z,0.13
2022-12-03T18:04:46.536Z,0.12
2022-12-03T18:07:13.099Z,0.12
2022-12-03T18:09:39.631Z,0.10
2022-12-03T18:12:06.583Z,0.10
2022-12-03T18:14:33.164Z,0.11
2022-12-03T18:16:59.654Z,0.10
2022-12-03T18:19:26.359Z,0.10
2022-12-03T18:21:54.029Z,0.10
2022-12-03T18:24:21.130Z,0.10
2022-12-03T18:26:47.749Z,0.08
2022-12-03T18:29:14.370Z,0.08
2022-12-03T18:31:40.929Z,0.06
2022-12-03T18:34:07.450Z,0.08
2022-12-03T18:36:36.298Z,0.06
2022-12-03T18:39:05.986Z,0.05
2022-12-03T18:41:33.437Z,0.05
2022-12-03T18:44:03.520Z,0.05
2022-12-03T18:46:52.401Z,0.04
2022-12-03T18:49:16.762Z,0.04
2022-12-03T18:51:43.447Z,0.03
2022-12-03T18:54:13.423Z,0.02
2022-12-03T18:56:43.260Z,0.02
2022-12-03T18:59:10.344Z,0.04
2022-12-03T19:01:37.039Z,0.03
2022-12-03T19:04:03.778Z,0.01
2022-12-03T19:06:30.603Z,0.01
2022-12-03T19:08:57.553Z,-0.02
2022-12-03T19:11:24.458Z,-0.03
2022-12-03T19:13:51.785Z,-0.04
2022-12-03T19:16:18.802Z,-0.05
2022-12-03T19:18:45.357Z,-0.04
2022-12-03T19:21:14.702Z,-0.04
2022-12-03T19:23:47.242Z,-0.03
2022-12-03T19:26:25.687Z,-0.05
2022-12-03T19:28:53.862Z,-0.02
2022-12-03T19:31:20.851Z,-0.01
2022-12-03T19:33:47.913Z,-0.03
2022-12-03T19:36:23.495Z,-0.07
2022-12-03T19:38:56.731Z,-0.05
2022-12-03T19:41:26.743Z,-0.07
2022-12-03T19:43:55.454Z,-0.09
2022-12-03T19:46:24.756Z,-0.11
2022-12-03T19:48:51.747Z,-0.12
2022-12-03T19:51:34.271Z,-0.12
2022-12-03T19:54:06.167Z,-0.13
2022-12-03T19:56:33.149Z,-0.13
2022-12-03T19:58:59.963Z,-0.15
2022-12-03T20:01:30.179Z,-0.13
2022-12-03T20:03:58.777Z,-0.14
2022-12-03T20:06:29.033Z,-0.13
2022-12-03T20:09:01.569Z,-0.13
2022-12-03T20:11:31.342Z,-0.14
2022-12-03T20:14:00.175Z,-0.15
2022-12-03T20:16:27.534Z,-0.14
2022-12-03T20:18:58.576Z,-0.16
2022-12-03T20:21:25.614Z,-0.16
2022-12-03T20:23:52.240Z,-0.18
2022-12-03T20:26:20.637Z,-0.18
2022-12-03T20:28:50.764Z,-0.16
2022-12-03T20:31:19.968Z,-0.18
2022-12-03T20:33:49.142Z,-0.18
2022-12-03T20:36:17.272Z,-0.20
2022-12-03T20:38:44.099Z,-0.20
2022-12-03T20:41:13.444Z,-0.20
2022-12-03T20:43:40.112Z,-0.20
2022-12-03T20:46:12.274Z,-0.19
2022-12-03T20:48:39.745Z,-0.20
2022-12-03T20:51:09.054Z,-0.21
2022-12-03T20:53:36.491Z,-0.19
2022-12-03T20:56:04.591Z,-0.18
2022-12-03T20:58:32.143Z,-0.19
2022-12-03T21:01:16.623Z,-0.21
2022-12-03T21:03:44.327Z,-0.22
2022-12-03T21:06:12.062Z,-0.23
2022-12-03T21:08:41.896Z,-0.26
2022-12-03T21:11:18.200Z,-0.27
2022-12-03T21:13:45.914Z,-0.27
2022-12-03T21:16:39.391Z,-0.28
2022-12-03T21:19:08.753Z,-0.28
2022-12-03T21:21:35.843Z,-0.27
2022-12-03T21:24:02.417Z,-0.27
2022-12-03T21:26:28.963Z,-0.28
2022-12-03T21:28:55.612Z,-0.28
2022-12-03T21:31:25.823Z,-0.27
2022-12-03T21:33:54.413Z,-0.28
2022-12-03T21:36:22.005Z,-0.29
2022-12-03T21:38:48.627Z,-0.29
2022-12-03T21:41:15.946Z,-0.29
2022-12-03T21:43:43.821Z,-0.29
2022-12-03T21:47:12.967Z,-0.30
2022-12-03T21:49:01.377Z,-0.30
2022-12-03T21:51:27.924Z,-0.31
2022-12-03T21:53:54.395Z,-0.30
2022-12-03T21:56:20.939Z,-0.28
2022-12-03T21:58:47.767Z,-0.27
2022-12-03T22:01:16.496Z,-0.28
2022-12-03T22:03:42.973Z,-0.28
2022-12-03T22:06:10.519Z,-0.26
2022-12-03T22:08:38.244Z,-0.27
2022-12-03T22:11:14.008Z,-0.27
2022-12-03T22:13:41.423Z,-0.28
2022-12-03T22:16:12.175Z,-0.26
2022-12-03T22:18:39.145Z,-0.27
2022-12-03T22:21:07.690Z,-0.31
2022-12-03T22:23:35.083Z,-0.33
2022-12-03T22:26:07.572Z,-0.32
2022-12-03T22:28:35.072Z,-0.32
2022-12-03T22:31:08.575Z,-0.30
2022-12-03T22:33:36.187Z,-0.31
2022-12-03T22:36:09.705Z,-0.29
2022-12-03T22:38:38.592Z,-0.30
2022-12-03T22:41:09.843Z,-0.28
2022-12-03T22:43:39.646Z,-0.29
2022-12-03T22:46:08.948Z,-0.27
2022-12-03T22:48:36.225Z,-0.27
2022-12-03T22:51:02.834Z,-0.26
2022-12-03T22:53:29.401Z,-0.25
2022-12-03T22:55:57.584Z,-0.22
2022-12-03T22:58:25.543Z,-0.22
2022-12-03T23:00:52.702Z,-0.21
2022-12-03T23:03:20.042Z,-0.22
2022-12-03T23:05:46.667Z,-0.22
2022-12-03T23:08:16.121Z,-0.22
2022-12-03T23:10:45.555Z,-0.22
2022-12-03T23:13:13.456Z,-0.21
2022-12-03T23:15:51.715Z,-0.23
2022-12-03T23:18:19.698Z,-0.24
2022-12-03T23:20:50.300Z,-0.27
2022-12-03T23:23:18.282Z,-0.28
2022-12-03T23:25:55.609Z,-0.29
2022-12-03T23:28:22.045Z,-0.29
2022-12-03T23:30:48.713Z,-0.29
2022-12-03T23:33:15.202Z,-0.27
2022-12-03T23:35:41.694Z,-0.28
2022-12-03T23:38:08.197Z,-0.29
2022-12-03T23:40:35.107Z,-0.28
2022-12-03T23:43:01.727Z,-0.27
2022-12-03T23:45:28.285Z,-0.29
2022-12-03T23:47:58.177Z,-0.27
2022-12-03T23:50:25.818Z,-0.28
2022-12-03T23:52:52.834Z,-0.25
2022-12-03T23:55:19.546Z,-0.23
2022-12-03T23:57:46.191Z,-0.23
